createdAt,value
2023-03-30T00:00:12.034Z,20.13
2023-03-30T00:01:12.430Z,20.17
2023-03-30T00:02:12.091Z,20.15
2023-03-30T00:03:12.186Z,20.17
2023-03-30T00:04:12.824Z,20.22
2023-03-30T00:05:12.542Z,20.19
2023-03-30T00:06:12.206Z,20.16
2023-03-30T00:07:12.239Z,20.17
2023-03-30T00:08:12.266Z,20.17
2023-03-30T00:10:12.322Z,20.13
2023-03-30T00:11:12.663Z,20.16
2023-03-30T00:12:12.377Z,20.12
2023-03-30T00:13:12.440Z,20.15
2023-03-30T00:14:12.439Z,20.15
2023-03-30T00:15:12.621Z,20.20
2023-03-30T00:16:12.513Z,20.10
2023-03-30T00:17:12.524Z,20.10
2023-03-30T00:18:12.811Z,20.16
2023-03-30T00:19:12.587Z,20.13
2023-03-30T00:20:12.653Z,20.10
2023-03-30T00:21:12.652Z,20.04
2023-03-30T00:22:12.681Z,20.13
2023-03-30T00:23:12.704Z,20.08
2023-03-30T00:24:13.045Z,20.12
2023-03-30T00:25:12.765Z,20.07
2023-03-30T00:26:12.824Z,20.13
2023-03-30T00:27:12.899Z,20.07
2023-03-30T00:28:12.848Z,20.01
2023-03-30T00:29:12.979Z,20.08
2023-03-30T00:30:12.910Z,20.13
2023-03-30T00:31:12.969Z,20.05
2023-03-30T00:32:13.058Z,20.02
2023-03-30T00:33:13.007Z,20.02
2023-03-30T00:34:13.031Z,20.02
2023-03-30T00:35:13.067Z,20.04
2023-03-30T00:36:13.436Z,20.05
2023-03-30T00:37:13.130Z,20.10
2023-03-30T00:38:13.157Z,20.04
2023-03-30T00:39:13.181Z,20.02
2023-03-30T00:40:13.205Z,20.02
2023-03-30T00:41:13.260Z,20.04
2023-03-30T00:42:13.263Z,20.02
2023-03-30T00:43:13.595Z,20.12
2023-03-30T00:44:13.390Z,20.04
2023-03-30T00:45:13.355Z,20.07
2023-03-30T00:46:13.427Z,20.02
2023-03-30T00:47:13.440Z,20.08
2023-03-30T00:48:13.446Z,20.04
2023-03-30T00:50:13.752Z,20.08
2023-03-30T00:51:13.540Z,20.07
2023-03-30T00:52:13.575Z,19.98
2023-03-30T00:53:13.589Z,20.07
2023-03-30T00:54:13.654Z,20.04
2023-03-30T00:55:13.663Z,20.00
2023-03-30T00:56:13.741Z,20.05
2023-03-30T00:57:14.055Z,19.90
2023-03-30T00:58:13.737Z,20.01
2023-03-30T00:59:13.768Z,19.90
2023-03-30T01:00:13.794Z,20.01
2023-03-30T01:01:13.909Z,20.05
2023-03-30T01:02:13.979Z,19.98
2023-03-30T01:03:13.981Z,19.92
2023-03-30T01:04:14.229Z,20.02
2023-03-30T01:05:13.944Z,19.92
2023-03-30T01:06:13.974Z,19.92
2023-03-30T01:07:14.017Z,20.00
2023-03-30T01:08:14.139Z,19.92
2023-03-30T01:09:14.069Z,19.94
2023-03-30T01:10:14.094Z,19.89
2023-03-30T01:11:14.375Z,19.94
2023-03-30T01:13:14.183Z,19.89
2023-03-30T01:14:14.211Z,19.97
2023-03-30T01:15:14.239Z,19.90
2023-03-30T01:16:14.397Z,19.90
2023-03-30T01:17:14.306Z,19.87
2023-03-30T01:18:14.628Z,19.87
2023-03-30T01:20:14.410Z,19.95
2023-03-30T01:21:14.423Z,19.92
2023-03-30T01:22:14.447Z,19.97
2023-03-30T01:23:14.494Z,19.86
2023-03-30T01:24:14.523Z,19.90
2023-03-30T01:25:14.785Z,19.92
2023-03-30T01:26:14.569Z,19.89
2023-03-30T01:27:14.649Z,19.86
2023-03-30T01:28:14.641Z,19.95
2023-03-30T01:31:15.044Z,19.86
2023-03-30T01:32:14.740Z,19.92
2023-03-30T01:33:14.787Z,19.94
2023-03-30T01:34:14.798Z,19.92
2023-03-30T01:35:14.874Z,19.89
2023-03-30T01:36:14.922Z,19.94
2023-03-30T01:37:14.887Z,19.95
2023-03-30T01:38:15.224Z,19.94
2023-03-30T01:39:14.951Z,19.89
2023-03-30T01:40:14.981Z,19.94
2023-03-30T01:41:15.015Z,19.94
2023-03-30T01:42:15.035Z,19.89
2023-03-30T01:43:15.069Z,19.97
2023-03-30T01:44:15.500Z,19.95
2023-03-30T01:45:15.126Z,19.94
2023-03-30T01:46:15.308Z,19.89
2023-03-30T01:47:15.203Z,19.89
2023-03-30T01:48:15.220Z,19.92
2023-03-30T01:49:15.564Z,19.89
2023-03-30T01:50:15.522Z,19.97
2023-03-30T01:52:15.354Z,19.87
2023-03-30T01:53:15.378Z,19.90
2023-03-30T01:54:15.391Z,19.97
2023-03-30T01:55:15.520Z,19.89
2023-03-30T01:56:15.701Z,19.92
2023-03-30T01:57:15.601Z,19.95
2023-03-30T01:58:15.504Z,19.90
2023-03-30T01:59:15.537Z,19.94
2023-03-30T02:00:15.570Z,19.90
2023-03-30T02:01:15.594Z,19.90
2023-03-30T02:02:15.638Z,19.87
2023-03-30T02:03:16.157Z,19.90
2023-03-30T02:04:15.688Z,19.95
2023-03-30T02:05:15.724Z,19.87
2023-03-30T02:06:15.751Z,19.89
2023-03-30T02:07:15.813Z,19.85
2023-03-30T02:08:15.827Z,19.89
2023-03-30T02:09:15.831Z,19.85
2023-03-30T02:10:16.176Z,19.98
2023-03-30T02:11:15.890Z,19.85
2023-03-30T02:12:15.927Z,19.97
2023-03-30T02:13:15.948Z,19.95
2023-03-30T02:14:15.988Z,19.80
2023-03-30T02:15:16.020Z,19.92
2023-03-30T02:16:16.136Z,19.85
2023-03-30T02:17:16.384Z,19.94
2023-03-30T02:18:16.106Z,19.92
2023-03-30T02:21:16.204Z,19.82
2023-03-30T02:22:16.221Z,19.83
2023-03-30T02:23:16.246Z,19.92
2023-03-30T02:24:16.349Z,19.87
2023-03-30T02:25:16.301Z,19.82
2023-03-30T02:26:16.342Z,19.82
2023-03-30T02:27:16.374Z,19.85
2023-03-30T02:28:16.393Z,19.87
2023-03-30T02:29:16.424Z,19.85
2023-03-30T02:30:16.750Z,19.87
2023-03-30T02:31:16.533Z,19.90
2023-03-30T02:32:16.506Z,19.85
2023-03-30T02:33:16.541Z,19.82
2023-03-30T02:34:16.568Z,19.80
2023-03-30T02:35:16.598Z,19.82
2023-03-30T02:36:16.653Z,19.85
2023-03-30T02:37:16.675Z,19.83
2023-03-30T02:38:16.747Z,19.92
2023-03-30T02:39:16.822Z,19.83
2023-03-30T02:40:16.766Z,19.87
2023-03-30T02:41:16.780Z,19.94
2023-03-30T02:42:16.811Z,19.92
2023-03-30T02:43:17.134Z,19.85
2023-03-30T02:45:16.898Z,19.82
2023-03-30T02:46:16.982Z,19.80
2023-03-30T02:47:16.948Z,19.86
2023-03-30T02:48:16.979Z,19.90
2023-03-30T02:49:17.312Z,19.83
2023-03-30T02:50:17.039Z,19.80
2023-03-30T02:52:17.103Z,19.92
2023-03-30T02:53:17.128Z,19.80
2023-03-30T02:54:17.253Z,19.82
2023-03-30T02:55:17.486Z,19.83
2023-03-30T02:58:17.311Z,19.80
2023-03-30T02:59:17.304Z,19.83
2023-03-30T03:01:17.827Z,19.80
2023-03-30T03:02:17.480Z,19.79
2023-03-30T03:03:17.656Z,19.85
2023-03-30T03:06:17.509Z,19.89
2023-03-30T03:07:17.534Z,19.79
2023-03-30T03:08:17.869Z,19.82
2023-03-30T03:09:17.600Z,19.94
2023-03-30T03:10:17.631Z,19.87
2023-03-30T03:11:17.658Z,19.89
2023-03-30T03:13:17.714Z,19.85
2023-03-30T03:14:17.873Z,19.87
2023-03-30T03:15:18.073Z,19.80
2023-03-30T03:16:17.859Z,19.85
2023-03-30T03:18:17.863Z,19.78
2023-03-30T03:19:17.902Z,19.82
2023-03-30T03:20:17.923Z,19.83
2023-03-30T03:21:17.955Z,19.82
2023-03-30T03:22:18.233Z,19.85
2023-03-30T03:23:18.011Z,19.80
2023-03-30T03:24:18.041Z,19.83
2023-03-30T03:25:18.067Z,19.82
2023-03-30T03:26:18.103Z,19.82
2023-03-30T03:28:18.458Z,19.82
2023-03-30T03:29:18.186Z,19.80
2023-03-30T03:30:18.284Z,19.85
2023-03-30T03:31:18.310Z,19.82
2023-03-30T03:32:18.325Z,19.82
2023-03-30T03:33:18.306Z,19.87
2023-03-30T03:34:18.337Z,19.83
2023-03-30T03:35:18.673Z,19.83
2023-03-30T03:36:18.440Z,19.80
2023-03-30T03:37:18.431Z,19.82
2023-03-30T03:38:18.454Z,19.82
2023-03-30T03:39:18.494Z,19.85
2023-03-30T03:40:18.518Z,19.79
2023-03-30T03:41:18.537Z,19.83
2023-03-30T03:42:18.822Z,19.82
2023-03-30T03:43:18.598Z,19.80
2023-03-30T03:44:18.642Z,19.82
2023-03-30T03:45:18.676Z,19.79
2023-03-30T03:46:18.770Z,19.82
2023-03-30T03:48:19.062Z,19.85
2023-03-30T03:49:18.790Z,19.86
2023-03-30T03:50:19.165Z,19.86
2023-03-30T03:51:18.840Z,19.80
2023-03-30T03:53:18.917Z,19.79
2023-03-30T03:54:18.926Z,19.79
2023-03-30T03:55:19.199Z,19.86
2023-03-30T03:56:18.978Z,19.80
2023-03-30T03:58:19.039Z,19.80
2023-03-30T03:59:19.080Z,19.80
2023-03-30T04:00:19.167Z,19.80
2023-03-30T04:01:19.139Z,19.85
2023-03-30T04:02:20.234Z,19.75
2023-03-30T04:03:19.229Z,19.82
2023-03-30T04:04:19.264Z,19.80
2023-03-30T04:05:19.253Z,19.82
2023-03-30T04:06:19.281Z,19.80
2023-03-30T04:07:19.553Z,19.82
2023-03-30T04:08:19.357Z,19.76
2023-03-30T04:10:19.403Z,19.78
2023-03-30T04:11:19.727Z,19.82
2023-03-30T04:13:19.734Z,19.83
2023-03-30T04:14:19.521Z,19.80
2023-03-30T04:15:19.548Z,19.82
2023-03-30T04:16:19.637Z,19.78
2023-03-30T04:17:19.598Z,19.80
2023-03-30T04:18:19.653Z,19.86
2023-03-30T04:19:19.667Z,19.83
2023-03-30T04:20:19.986Z,19.80
2023-03-30T04:21:19.824Z,19.82
2023-03-30T04:24:19.806Z,19.80
2023-03-30T04:25:22.042Z,19.82
2023-03-30T04:26:19.872Z,19.67
2023-03-30T04:27:20.206Z,19.83
2023-03-30T04:28:19.953Z,19.79
2023-03-30T04:29:19.962Z,19.82
2023-03-30T04:30:20.006Z,19.76
2023-03-30T04:31:20.135Z,19.80
2023-03-30T04:32:20.147Z,19.78
2023-03-30T04:33:20.076Z,19.68
2023-03-30T04:34:20.450Z,19.68
2023-03-30T04:35:20.137Z,19.75
2023-03-30T04:36:20.167Z,19.78
2023-03-30T04:38:20.228Z,19.76
2023-03-30T04:39:20.298Z,19.83
2023-03-30T04:40:20.333Z,19.82
2023-03-30T04:41:20.618Z,19.76
2023-03-30T04:42:20.436Z,19.83
2023-03-30T04:43:20.366Z,19.76
2023-03-30T04:44:20.399Z,19.75
2023-03-30T04:45:20.439Z,19.76
2023-03-30T04:46:20.537Z,19.80
2023-03-30T04:47:20.488Z,19.80
2023-03-30T04:48:20.817Z,19.79
2023-03-30T04:49:20.562Z,19.80
2023-03-30T04:50:20.605Z,19.79
2023-03-30T04:51:20.618Z,19.75
2023-03-30T04:52:20.643Z,19.83
2023-03-30T04:53:20.668Z,19.71
2023-03-30T04:54:20.807Z,19.76
2023-03-30T04:55:21.024Z,19.76
2023-03-30T04:56:20.868Z,19.72
2023-03-30T04:57:20.820Z,19.76
2023-03-30T04:58:20.814Z,19.71
2023-03-30T05:00:20.874Z,19.82
2023-03-30T05:01:21.006Z,19.75
2023-03-30T05:02:21.264Z,19.71
2023-03-30T05:03:23.228Z,19.76
2023-03-30T05:05:21.129Z,19.68
2023-03-30T05:06:21.089Z,19.75
2023-03-30T05:07:21.073Z,19.86
2023-03-30T05:08:21.111Z,19.80
2023-03-30T05:11:21.210Z,19.76
2023-03-30T05:12:21.228Z,19.83
2023-03-30T05:13:21.253Z,19.79
2023-03-30T05:15:21.315Z,19.76
2023-03-30T05:17:21.382Z,19.79
2023-03-30T05:18:21.399Z,19.82
2023-03-30T05:20:21.459Z,19.72
2023-03-30T05:21:21.489Z,19.72
2023-03-30T05:22:21.534Z,19.72
2023-03-30T05:24:21.834Z,19.76
2023-03-30T05:25:21.614Z,19.76
2023-03-30T05:26:21.712Z,19.72
2023-03-30T05:27:21.668Z,19.79
2023-03-30T05:28:21.694Z,19.79
2023-03-30T05:29:21.728Z,19.78
2023-03-30T05:30:21.760Z,19.78
2023-03-30T05:31:22.082Z,19.76
2023-03-30T05:32:21.820Z,19.70
2023-03-30T05:33:21.844Z,19.68
2023-03-30T05:34:21.899Z,19.83
2023-03-30T05:35:21.898Z,19.80
2023-03-30T05:36:21.933Z,19.78
2023-03-30T05:37:21.974Z,19.76
2023-03-30T05:38:22.309Z,19.80
2023-03-30T05:39:22.019Z,19.85
2023-03-30T05:40:22.047Z,19.80
2023-03-30T05:41:22.079Z,19.79
2023-03-30T05:42:22.115Z,19.78
2023-03-30T05:43:22.133Z,19.83
2023-03-30T05:44:22.792Z,19.83
2023-03-30T05:45:22.190Z,19.79
2023-03-30T05:47:22.371Z,19.78
2023-03-30T05:48:22.279Z,19.78
2023-03-30T05:49:22.313Z,19.86
2023-03-30T05:50:22.336Z,19.86
2023-03-30T05:51:22.679Z,19.76
2023-03-30T05:52:22.425Z,19.78
2023-03-30T05:53:22.444Z,19.75
2023-03-30T05:54:22.473Z,19.76
2023-03-30T05:55:22.517Z,19.79
2023-03-30T05:58:22.579Z,19.79
2023-03-30T05:59:22.625Z,19.80
2023-03-30T06:00:22.636Z,19.76
2023-03-30T06:01:22.671Z,19.82
2023-03-30T06:02:22.809Z,19.79
2023-03-30T06:03:23.074Z,19.79
2023-03-30T06:04:22.878Z,19.79
2023-03-30T06:05:22.792Z,19.82
2023-03-30T06:06:22.807Z,19.79
2023-03-30T06:07:22.845Z,19.85
2023-03-30T06:08:23.009Z,19.79
2023-03-30T06:09:22.900Z,19.90
2023-03-30T06:10:23.252Z,19.80
2023-03-30T06:11:23.063Z,19.80
2023-03-30T06:12:23.002Z,19.79
2023-03-30T06:13:23.021Z,19.76
2023-03-30T06:14:23.053Z,19.80
2023-03-30T06:15:23.074Z,19.85
2023-03-30T06:17:23.506Z,19.79
2023-03-30T06:18:23.165Z,19.80
2023-03-30T06:19:23.196Z,19.83
2023-03-30T06:20:23.224Z,19.83
2023-03-30T06:21:23.252Z,19.82
2023-03-30T06:23:23.563Z,19.82
2023-03-30T06:24:23.344Z,19.86
2023-03-30T06:25:23.372Z,19.80
2023-03-30T06:26:23.430Z,19.83
2023-03-30T06:27:23.429Z,19.78
2023-03-30T06:28:23.454Z,19.85
2023-03-30T06:29:23.488Z,19.83
2023-03-30T06:30:23.516Z,19.80
2023-03-30T06:31:23.683Z,19.85
2023-03-30T06:32:23.614Z,19.80
2023-03-30T06:33:23.608Z,19.85
2023-03-30T06:34:23.646Z,19.82
2023-03-30T06:35:23.675Z,19.95
2023-03-30T06:36:45.267Z,19.80
2023-03-30T06:37:23.733Z,19.79
2023-03-30T06:38:23.765Z,19.89
2023-03-30T06:39:23.788Z,19.87
2023-03-30T06:40:23.826Z,19.87
2023-03-30T06:41:23.845Z,19.94
2023-03-30T06:42:23.886Z,19.95
2023-03-30T06:43:24.198Z,19.87
2023-03-30T06:44:23.941Z,19.92
2023-03-30T06:45:23.959Z,19.86
2023-03-30T06:46:24.016Z,19.89
2023-03-30T06:47:24.040Z,19.89
2023-03-30T06:48:24.062Z,19.97
2023-03-30T06:49:24.074Z,19.86
2023-03-30T06:50:24.406Z,19.94
2023-03-30T06:51:24.135Z,19.83
2023-03-30T06:52:24.181Z,19.90
2023-03-30T06:53:24.222Z,19.94
2023-03-30T06:54:24.333Z,19.94
2023-03-30T06:55:24.257Z,19.95
2023-03-30T06:56:24.290Z,19.92
2023-03-30T06:57:24.337Z,19.94
2023-03-30T06:58:24.358Z,19.90
2023-03-30T07:00:24.405Z,19.86
2023-03-30T07:01:24.506Z,19.95
2023-03-30T07:02:24.793Z,20.05
2023-03-30T07:03:24.498Z,19.90
2023-03-30T07:04:24.563Z,20.02
2023-03-30T07:05:24.556Z,20.04
2023-03-30T07:06:24.575Z,19.97
2023-03-30T07:07:24.613Z,20.02
2023-03-30T07:08:24.637Z,20.05
2023-03-30T07:09:25.121Z,20.13
2023-03-30T07:10:25.326Z,20.10
2023-03-30T07:12:25.267Z,20.05
2023-03-30T07:13:25.082Z,20.08
2023-03-30T07:14:25.723Z,20.02
2023-03-30T07:15:24.854Z,20.02
2023-03-30T07:16:24.940Z,20.10
2023-03-30T07:17:26.893Z,20.12
2023-03-30T07:18:24.937Z,20.08
2023-03-30T07:19:24.978Z,20.08
2023-03-30T07:20:25.106Z,20.01
2023-03-30T07:21:25.280Z,20.17
2023-03-30T07:22:25.057Z,20.15
2023-03-30T07:23:25.086Z,20.19
2023-03-30T07:24:25.120Z,20.10
2023-03-30T07:25:25.153Z,20.19
2023-03-30T07:26:25.176Z,20.17
2023-03-30T07:27:25.622Z,20.16
2023-03-30T07:28:25.535Z,20.16
2023-03-30T07:29:25.275Z,20.17
2023-03-30T07:30:25.312Z,20.19
2023-03-30T07:31:25.350Z,20.17
2023-03-30T07:33:25.401Z,20.19
2023-03-30T07:34:25.412Z,20.16
2023-03-30T07:35:25.736Z,20.13
2023-03-30T07:36:25.479Z,20.16
2023-03-30T07:37:25.497Z,20.15
2023-03-30T07:38:25.526Z,20.15
2023-03-30T07:39:25.561Z,20.17
2023-03-30T07:40:25.662Z,20.20
2023-03-30T07:41:25.622Z,20.15
2023-03-30T07:42:25.954Z,20.20
2023-03-30T07:43:25.671Z,20.16
2023-03-30T07:44:25.711Z,20.23
2023-03-30T07:46:25.835Z,20.22
2023-03-30T07:47:25.857Z,20.20
2023-03-30T07:48:25.843Z,20.31
2023-03-30T07:49:25.863Z,20.31
2023-03-30T07:50:26.062Z,20.27
2023-03-30T07:51:27.974Z,20.27
2023-03-30T07:52:25.953Z,20.35
2023-03-30T07:53:26.001Z,20.35
2023-03-30T07:54:26.003Z,20.33
2023-03-30T07:55:26.041Z,20.38
2023-03-30T07:56:26.062Z,20.40
2023-03-30T07:57:26.169Z,20.40
2023-03-30T07:58:26.123Z,20.42
2023-03-30T07:59:26.151Z,20.44
2023-03-30T08:00:26.189Z,20.42
2023-03-30T08:01:26.515Z,20.42
2023-03-30T08:02:26.271Z,20.44
2023-03-30T08:03:26.464Z,20.48
2023-03-30T08:05:26.333Z,20.53
2023-03-30T08:06:26.363Z,20.51
2023-03-30T08:07:26.687Z,20.53
2023-03-30T08:08:26.417Z,20.44
2023-03-30T08:09:26.451Z,20.51
2023-03-30T08:10:26.485Z,20.48
2023-03-30T08:11:26.535Z,20.57
2023-03-30T08:12:26.538Z,20.58
2023-03-30T08:13:26.822Z,20.58
2023-03-30T08:15:26.673Z,20.58
2023-03-30T08:16:26.680Z,20.60
2023-03-30T08:17:26.691Z,20.57
2023-03-30T08:18:28.956Z,20.60
2023-03-30T08:20:26.779Z,20.63
2023-03-30T08:21:26.820Z,20.58
2023-03-30T08:22:26.843Z,20.54
2023-03-30T08:23:26.866Z,20.57
2023-03-30T08:26:27.226Z,20.54
2023-03-30T08:27:27.038Z,20.46
2023-03-30T08:29:27.054Z,20.48
2023-03-30T08:30:27.076Z,20.44
2023-03-30T08:34:27.222Z,20.46
2023-03-30T08:36:27.314Z,20.53
2023-03-30T08:37:27.287Z,20.50
2023-03-30T08:38:27.320Z,20.42
2023-03-30T08:39:27.350Z,20.42
2023-03-30T08:40:27.671Z,20.44
2023-03-30T08:41:27.509Z,20.53
2023-03-30T08:42:27.577Z,20.41
2023-03-30T08:43:27.466Z,20.44
2023-03-30T08:44:27.502Z,20.53
2023-03-30T08:45:27.571Z,20.60
2023-03-30T08:46:27.619Z,20.56
2023-03-30T08:47:27.929Z,20.56
2023-03-30T08:48:27.623Z,20.46
2023-03-30T08:49:27.644Z,20.53
2023-03-30T08:50:27.709Z,20.58
2023-03-30T08:51:27.707Z,20.46
2023-03-30T08:52:27.775Z,20.50
2023-03-30T08:53:27.764Z,20.56
2023-03-30T08:54:28.100Z,20.60
2023-03-30T08:55:27.824Z,20.54
2023-03-30T08:56:27.854Z,20.53
2023-03-30T08:57:27.906Z,20.60
2023-03-30T08:58:27.923Z,20.53
2023-03-30T08:59:27.943Z,20.44
2023-03-30T09:00:27.978Z,20.51
2023-03-30T09:01:28.156Z,20.56
2023-03-30T09:02:28.077Z,20.42
2023-03-30T09:03:28.081Z,20.44
2023-03-30T09:04:28.131Z,20.51
2023-03-30T09:05:28.231Z,20.44
2023-03-30T09:06:28.172Z,20.60
2023-03-30T09:07:28.435Z,20.54
2023-03-30T09:08:28.214Z,20.58
2023-03-30T09:09:28.241Z,20.64
2023-03-30T09:10:28.402Z,20.64
2023-03-30T09:11:28.398Z,20.64
2023-03-30T09:12:28.334Z,20.64
2023-03-30T09:13:28.663Z,20.61
2023-03-30T09:14:28.404Z,20.64
2023-03-30T09:15:30.486Z,20.64
2023-03-30T09:17:28.499Z,20.63
2023-03-30T09:18:28.515Z,20.58
2023-03-30T09:19:28.838Z,20.54
2023-03-30T09:20:28.567Z,20.57
2023-03-30T09:21:28.602Z,20.44
2023-03-30T09:22:28.674Z,20.42
2023-03-30T09:23:28.661Z,20.42
2023-03-30T09:24:28.688Z,20.44
2023-03-30T09:25:28.733Z,20.40
2023-03-30T09:26:29.266Z,20.42
2023-03-30T09:28:28.817Z,20.46
2023-03-30T09:29:28.856Z,20.46
2023-03-30T09:30:28.881Z,20.44
2023-03-30T09:31:28.952Z,20.42
2023-03-30T09:32:28.983Z,20.42
2023-03-30T09:33:28.968Z,20.40
2023-03-30T09:34:28.994Z,20.42
2023-03-30T09:35:29.059Z,20.41
2023-03-30T09:36:29.082Z,20.40
2023-03-30T09:37:29.079Z,20.41
2023-03-30T09:38:29.124Z,20.33
2023-03-30T09:39:30.493Z,20.33
2023-03-30T09:40:29.165Z,20.30
2023-03-30T09:41:29.199Z,20.26
2023-03-30T09:42:29.228Z,20.23
2023-03-30T09:43:29.255Z,20.22
2023-03-30T09:46:29.406Z,20.19
2023-03-30T09:47:29.481Z,20.17
2023-03-30T09:49:29.456Z,20.00
2023-03-30T09:50:29.485Z,20.13
2023-03-30T09:51:31.260Z,20.13
2023-03-30T09:52:30.126Z,20.10
2023-03-30T09:53:29.595Z,20.04
2023-03-30T09:54:29.601Z,20.02
2023-03-30T09:55:29.617Z,20.02
2023-03-30T09:56:29.641Z,19.92
2023-03-30T09:57:29.781Z,19.90
2023-03-30T09:58:29.706Z,19.95
2023-03-30T09:59:30.026Z,19.92
2023-03-30T10:00:29.856Z,19.92
2023-03-30T10:02:29.909Z,19.90
2023-03-30T10:03:29.968Z,19.95
2023-03-30T10:04:29.944Z,20.02
2023-03-30T10:05:29.932Z,20.04
2023-03-30T10:06:29.934Z,20.02
2023-03-30T10:07:30.106Z,20.05
2023-03-30T10:08:29.995Z,19.90
2023-03-30T10:09:30.035Z,20.00
2023-03-30T10:10:30.077Z,19.95
2023-03-30T10:11:30.100Z,19.95
2023-03-30T10:13:30.452Z,19.97
2023-03-30T10:14:30.185Z,19.90
2023-03-30T10:15:30.229Z,19.89
2023-03-30T10:17:30.330Z,20.05
2023-03-30T10:18:30.302Z,20.08
2023-03-30T10:19:30.320Z,20.01
2023-03-30T10:20:30.352Z,20.07
2023-03-30T10:21:30.373Z,20.02
2023-03-30T10:22:30.402Z,20.10
2023-03-30T10:23:30.440Z,20.15
2023-03-30T10:24:30.466Z,20.17
2023-03-30T10:25:30.794Z,20.12
2023-03-30T10:26:30.556Z,20.19
2023-03-30T10:27:30.554Z,20.12
2023-03-30T10:28:30.581Z,20.19
2023-03-30T10:29:30.616Z,20.17
2023-03-30T10:30:30.639Z,20.27
2023-03-30T10:31:31.053Z,20.25
2023-03-30T10:32:30.730Z,20.23
2023-03-30T10:33:30.734Z,20.25
2023-03-30T10:34:30.774Z,20.26
2023-03-30T10:35:30.847Z,20.33
2023-03-30T10:36:30.825Z,20.37
2023-03-30T10:37:30.872Z,20.31
2023-03-30T10:38:31.184Z,20.31
2023-03-30T10:39:30.909Z,20.27
2023-03-30T10:40:30.940Z,20.34
2023-03-30T10:42:31.017Z,20.31
2023-03-30T10:43:31.040Z,20.31
2023-03-30T10:44:31.090Z,20.27
2023-03-30T10:45:31.392Z,20.37
2023-03-30T10:46:31.124Z,20.27
2023-03-30T10:47:31.181Z,20.34
2023-03-30T10:48:31.198Z,20.34
2023-03-30T10:49:31.210Z,20.35
2023-03-30T10:50:31.297Z,20.26
2023-03-30T10:51:31.299Z,20.31
2023-03-30T10:52:31.542Z,20.23
2023-03-30T10:53:31.327Z,20.22
2023-03-30T10:54:31.352Z,20.22
2023-03-30T10:55:31.380Z,20.19
2023-03-30T10:56:31.461Z,20.16
2023-03-30T10:57:31.493Z,20.22
2023-03-30T10:58:31.541Z,20.17
2023-03-30T10:59:31.805Z,20.16
2023-03-30T11:00:31.605Z,20.19
2023-03-30T11:01:31.593Z,20.13
2023-03-30T11:02:31.638Z,20.12
2023-03-30T11:03:31.774Z,20.16
2023-03-30T11:05:32.807Z,20.15
2023-03-30T11:06:31.711Z,20.00
2023-03-30T11:08:31.770Z,20.13
2023-03-30T11:09:31.844Z,20.04
2023-03-30T11:10:31.871Z,20.02
2023-03-30T11:12:32.184Z,20.12
2023-03-30T11:13:31.921Z,20.07
2023-03-30T11:15:31.991Z,20.07
2023-03-30T11:16:32.057Z,20.07
2023-03-30T11:17:32.093Z,20.02
2023-03-30T11:18:32.067Z,20.02
2023-03-30T11:19:32.384Z,20.01
2023-03-30T11:20:32.120Z,19.90
2023-03-30T11:21:32.177Z,19.87
2023-03-30T11:23:32.243Z,19.90
2023-03-30T11:24:32.238Z,19.87
2023-03-30T11:25:32.605Z,19.95
2023-03-30T11:26:32.551Z,20.05
2023-03-30T11:27:32.325Z,20.00
2023-03-30T11:28:32.364Z,20.02
2023-03-30T11:29:32.392Z,20.07
2023-03-30T11:30:32.425Z,20.01
2023-03-30T11:31:32.552Z,20.05
2023-03-30T11:33:32.750Z,20.01
2023-03-30T11:34:32.534Z,20.01
2023-03-30T11:35:32.585Z,20.13
2023-03-30T11:36:32.647Z,20.05
2023-03-30T11:37:32.614Z,19.98
2023-03-30T11:38:32.646Z,20.07
2023-03-30T11:39:33.150Z,20.04
2023-03-30T11:40:32.797Z,20.13
2023-03-30T11:41:32.737Z,20.01
2023-03-30T11:42:32.754Z,20.05
2023-03-30T11:43:32.782Z,20.12
2023-03-30T11:44:32.814Z,20.10
2023-03-30T11:45:33.149Z,20.16
2023-03-30T11:46:32.929Z,20.12
2023-03-30T11:47:32.983Z,20.17
2023-03-30T11:48:32.950Z,20.16
2023-03-30T11:49:32.964Z,20.16
2023-03-30T11:50:33.008Z,20.17
2023-03-30T11:51:33.174Z,20.16
2023-03-30T11:52:33.061Z,20.16
2023-03-30T11:53:33.073Z,20.22
2023-03-30T11:54:33.132Z,20.27
2023-03-30T11:56:33.468Z,20.26
2023-03-30T11:57:33.200Z,20.30
2023-03-30T11:58:33.226Z,20.31
2023-03-30T11:59:33.256Z,20.33
2023-03-30T12:00:33.302Z,20.40
2023-03-30T12:01:33.323Z,20.34
2023-03-30T12:02:33.408Z,20.40
2023-03-30T12:03:33.847Z,20.48
2023-03-30T12:04:33.432Z,20.46
2023-03-30T12:07:33.492Z,20.57
2023-03-30T12:09:33.653Z,20.68
2023-03-30T12:10:33.897Z,20.60
2023-03-30T12:11:33.616Z,20.71
2023-03-30T12:12:33.642Z,20.69
2023-03-30T12:13:44.453Z,20.69
2023-03-30T12:14:33.720Z,20.72
2023-03-30T12:15:33.727Z,20.73
2023-03-30T12:16:33.817Z,20.71
2023-03-30T12:17:34.106Z,20.72
2023-03-30T12:18:33.830Z,20.71
2023-03-30T12:19:39.811Z,20.72
2023-03-30T12:20:33.889Z,20.68
2023-03-30T12:21:33.904Z,20.73
2023-03-30T12:22:33.938Z,20.69
2023-03-30T12:23:33.962Z,20.71
2023-03-30T12:24:35.803Z,20.75
2023-03-30T12:25:34.025Z,20.64
2023-03-30T12:26:34.060Z,20.60
2023-03-30T12:27:34.102Z,20.61
2023-03-30T12:28:54.012Z,20.58
2023-03-30T12:30:00.727Z,20.60
2023-03-30T12:30:34.170Z,20.53
2023-03-30T12:31:34.248Z,20.57
2023-03-30T12:32:34.244Z,20.60
2023-03-30T12:33:34.261Z,20.58
2023-03-30T12:34:34.295Z,20.60
2023-03-30T12:35:34.422Z,20.60
2023-03-30T12:36:34.656Z,20.53
2023-03-30T12:37:34.383Z,20.60
2023-03-30T12:38:34.461Z,20.61
2023-03-30T12:39:34.445Z,20.63
2023-03-30T12:40:34.486Z,20.61
2023-03-30T12:41:34.802Z,20.61
2023-03-30T12:42:35.097Z,20.66
2023-03-30T12:43:34.562Z,20.61
2023-03-30T12:44:34.606Z,20.66
2023-03-30T12:46:34.733Z,20.72
2023-03-30T12:47:34.716Z,20.66
2023-03-30T12:48:34.735Z,20.72
2023-03-30T12:49:35.049Z,20.71
2023-03-30T12:50:34.768Z,20.60
2023-03-30T12:51:34.829Z,20.69
2023-03-30T12:52:34.824Z,20.64
2023-03-30T12:53:34.863Z,20.61
2023-03-30T12:54:34.934Z,20.60
2023-03-30T12:55:34.914Z,20.60
2023-03-30T12:56:35.248Z,20.53
2023-03-30T12:58:37.081Z,20.44
2023-03-30T12:59:35.027Z,20.44
2023-03-30T13:00:35.061Z,20.42
2023-03-30T13:01:35.148Z,20.46
2023-03-30T13:02:35.140Z,20.41
2023-03-30T13:03:35.442Z,20.48
2023-03-30T13:04:35.281Z,20.42
2023-03-30T13:05:35.216Z,20.44
2023-03-30T13:06:35.244Z,20.42
2023-03-30T13:07:35.283Z,20.40
2023-03-30T13:08:35.301Z,20.38
2023-03-30T13:09:35.332Z,20.35
2023-03-30T13:10:35.662Z,20.41
2023-03-30T13:11:35.414Z,20.42
2023-03-30T13:12:35.416Z,20.50
2023-03-30T13:13:35.449Z,20.44
2023-03-30T13:14:35.497Z,20.54
2023-03-30T13:15:35.513Z,20.48
2023-03-30T13:16:35.548Z,20.54
2023-03-30T13:17:35.973Z,20.51
2023-03-30T13:18:35.604Z,20.57
2023-03-30T13:19:35.723Z,20.54
2023-03-30T13:20:35.651Z,20.54
2023-03-30T13:21:36.282Z,20.60
2023-03-30T13:22:35.730Z,20.56
2023-03-30T13:23:35.820Z,20.61
2023-03-30T13:24:35.768Z,20.61
2023-03-30T13:25:35.794Z,20.64
2023-03-30T13:26:35.837Z,20.64
2023-03-30T13:27:35.865Z,20.61
2023-03-30T13:28:35.897Z,20.68
2023-03-30T13:29:36.048Z,20.66
2023-03-30T13:30:35.984Z,20.61
2023-03-30T13:31:35.985Z,20.60
2023-03-30T13:32:36.285Z,20.58
2023-03-30T13:33:36.039Z,20.66
2023-03-30T13:34:36.073Z,20.64
2023-03-30T13:35:36.120Z,20.73
2023-03-30T13:37:36.615Z,20.75
2023-03-30T13:38:36.195Z,20.72
2023-03-30T13:39:36.246Z,20.73
2023-03-30T13:40:41.841Z,20.71
2023-03-30T13:41:36.276Z,20.69
2023-03-30T13:42:36.295Z,20.75
2023-03-30T13:43:36.344Z,20.79
2023-03-30T13:44:36.602Z,20.71
2023-03-30T13:45:36.493Z,20.73
2023-03-30T13:46:36.439Z,20.82
2023-03-30T13:47:36.515Z,20.83
2023-03-30T13:48:36.474Z,20.87
2023-03-30T13:49:36.511Z,20.88
2023-03-30T13:50:36.555Z,20.87
2023-03-30T13:51:36.605Z,20.83
2023-03-30T13:52:38.447Z,20.85
2023-03-30T13:53:36.632Z,20.85
2023-03-30T13:54:36.704Z,20.90
2023-03-30T13:55:36.698Z,20.93
2023-03-30T13:56:36.971Z,20.88
2023-03-30T13:57:36.760Z,20.96
2023-03-30T13:58:36.768Z,20.98
2023-03-30T13:59:36.824Z,21.01
2023-03-30T14:00:36.867Z,20.94
2023-03-30T14:01:39.496Z,20.90
2023-03-30T14:02:38.345Z,20.98
2023-03-30T14:03:37.007Z,20.90
2023-03-30T14:04:36.955Z,21.00
2023-03-30T14:05:37.084Z,21.00
2023-03-30T14:06:37.013Z,21.01
2023-03-30T14:07:37.032Z,21.00
2023-03-30T14:08:37.105Z,21.00